ΕΜΥ, Εθνική Μετεωρολογική Υπηρεσία - Δελτία Καιρού, Προγνώσεις

ΑΕΡΟΝΑΥΤΙΛΙΑ

GREEK AIRPORTS CODES

LGEL 151150Z 19008KT CAVOK 28/07 Q1017=

EUROPEAN AIRPORTS CODES

TAF LGEL 151100Z 1512/1612 19010KT 9999 FEW025 BECMG 1516/1518 VRB05KT BECMG 1607/1609 19010KT=